Terminal Aerodrome Forecast
Issued by NWS

Home | Current Version | Previous Version | Text Only | Print | Product List | Glossary On
Versions: 1 2 3 4 5 6 7 8 9 10 11 12 13 14 15 16
000
FTUS45 KABQ 080536
TAFROW
TAF
KROW 080536Z 0806/0906 17005KT P6SM SCT080
     FM082200 18012G21KT P6SM VCTS SCT060CB BKN100
     FM090100 17015KT P6SM VCSH SCT070 BKN120
     FM090500 17011KT P6SM SCT080 BKN140=

USA.gov is the U.S. government's official web portal to all federal, state and local government web resources and services.